sensor_id;sensor_type;location;lat;lon;timestamp;P1;durP1;ratioP1;P2;durP2;ratioP2
41631;SDS011;37452;51.938;4.624;2023-04-15T00:00:26;7.22;;;3.08;;
41631;SDS011;37452;51.938;4.624;2023-04-15T00:02:52;5.40;;;3.08;;
41631;SDS011;37452;51.938;4.624;2023-04-15T00:05:18;6.70;;;3.13;;
41631;SDS011;37452;51.938;4.624;2023-04-15T00:07:43;7.53;;;3.03;;
41631;SDS011;37452;51.938;4.624;2023-04-15T00:10:11;5.33;;;2.73;;
41631;SDS011;37452;51.938;4.624;2023-04-15T00:12:36;5.20;;;3.20;;
41631;SDS011;37452;51.938;4.624;2023-04-15T00:15:01;8.73;;;2.90;;
41631;SDS011;37452;51.938;4.624;2023-04-15T00:17:28;7.07;;;2.73;;
41631;SDS011;37452;51.938;4.624;2023-04-15T00:19:53;7.93;;;2.65;;
41631;SDS011;37452;51.938;4.624;2023-04-15T00:22:19;8.07;;;3.07;;
41631;SDS011;37452;51.938;4.624;2023-04-15T00:27:09;8.73;;;2.87;;
41631;SDS011;37452;51.938;4.624;2023-04-15T00:29:35;10.67;;;3.30;;
41631;SDS011;37452;51.938;4.624;2023-04-15T00:32:01;5.07;;;2.77;;
41631;SDS011;37452;51.938;4.624;2023-04-15T00:34:26;9.13;;;3.03;;
41631;SDS011;37452;51.938;4.624;2023-04-15T00:36:52;11.43;;;3.27;;
41631;SDS011;37452;51.938;4.624;2023-04-15T00:39:18;7.63;;;3.50;;
41631;SDS011;37452;51.938;4.624;2023-04-15T00:41:45;9.17;;;3.33;;
41631;SDS011;37452;51.938;4.624;2023-04-15T00:44:11;8.33;;;3.13;;
41631;SDS011;37452;51.938;4.624;2023-04-15T00:46:36;7.13;;;2.83;;
41631;SDS011;37452;51.938;4.624;2023-04-15T00:49:03;7.93;;;3.60;;
41631;SDS011;37452;51.938;4.624;2023-04-15T00:51:30;6.80;;;3.30;;
41631;SDS011;37452;51.938;4.624;2023-04-15T00:53:57;6.93;;;3.17;;
41631;SDS011;37452;51.938;4.624;2023-04-15T00:56:24;6.43;;;3.23;;
41631;SDS011;37452;51.938;4.624;2023-04-15T00:58:51;8.20;;;3.37;;
41631;SDS011;37452;51.938;4.624;2023-04-15T01:01:20;9.67;;;3.70;;
41631;SDS011;37452;51.938;4.624;2023-04-15T01:03:46;6.77;;;3.87;;
41631;SDS011;37452;51.938;4.624;2023-04-15T01:06:16;8.30;;;3.97;;
41631;SDS011;37452;51.938;4.624;2023-04-15T01:08:42;7.60;;;3.73;;
41631;SDS011;37452;51.938;4.624;2023-04-15T01:11:08;11.23;;;3.87;;
41631;SDS011;37452;51.938;4.624;2023-04-15T01:13:36;5.80;;;3.37;;
41631;SDS011;37452;51.938;4.624;2023-04-15T01:16:02;9.63;;;3.73;;
41631;SDS011;37452;51.938;4.624;2023-04-15T01:18:28;9.43;;;3.83;;
41631;SDS011;37452;51.938;4.624;2023-04-15T01:20:54;8.90;;;3.87;;
41631;SDS011;37452;51.938;4.624;2023-04-15T01:23:22;8.53;;;3.70;;
41631;SDS011;37452;51.938;4.624;2023-04-15T01:25:48;9.10;;;3.97;;
41631;SDS011;37452;51.938;4.624;2023-04-15T01:28:14;7.40;;;3.80;;
41631;SDS011;37452;51.938;4.624;2023-04-15T01:30:40;8.40;;;4.00;;
41631;SDS011;37452;51.938;4.624;2023-04-15T01:33:05;7.80;;;3.83;;
41631;SDS011;37452;51.938;4.624;2023-04-15T01:35:31;11.13;;;4.27;;
41631;SDS011;37452;51.938;4.624;2023-04-15T01:37:59;5.20;;;3.23;;
41631;SDS011;37452;51.938;4.624;2023-04-15T01:40:30;5.93;;;4.10;;
41631;SDS011;37452;51.938;4.624;2023-04-15T01:42:55;6.40;;;4.20;;
41631;SDS011;37452;51.938;4.624;2023-04-15T01:45:20;9.23;;;4.43;;
41631;SDS011;37452;51.938;4.624;2023-04-15T01:47:46;6.40;;;4.20;;
41631;SDS011;37452;51.938;4.624;2023-04-15T01:50:11;13.77;;;3.83;;
41631;SDS011;37452;51.938;4.624;2023-04-15T01:52:37;8.70;;;4.87;;
41631;SDS011;37452;51.938;4.624;2023-04-15T01:55:02;8.20;;;4.53;;
41631;SDS011;37452;51.938;4.624;2023-04-15T01:57:28;7.37;;;4.00;;
41631;SDS011;37452;51.938;4.624;2023-04-15T01:59:53;7.07;;;4.53;;
41631;SDS011;37452;51.938;4.624;2023-04-15T02:04:44;10.53;;;4.07;;
41631;SDS011;37452;51.938;4.624;2023-04-15T02:07:09;9.00;;;4.13;;
41631;SDS011;37452;51.938;4.624;2023-04-15T02:09:34;7.50;;;4.07;;
41631;SDS011;37452;51.938;4.624;2023-04-15T02:12:00;6.30;;;4.07;;
41631;SDS011;37452;51.938;4.624;2023-04-15T02:14:25;11.13;;;4.70;;
41631;SDS011;37452;51.938;4.624;2023-04-15T02:16:51;8.30;;;5.03;;
41631;SDS011;37452;51.938;4.624;2023-04-15T02:19:16;8.10;;;4.53;;
41631;SDS011;37452;51.938;4.624;2023-04-15T02:21:41;6.97;;;4.10;;
41631;SDS011;37452;51.938;4.624;2023-04-15T02:24:06;9.37;;;4.33;;
41631;SDS011;37452;51.938;4.624;2023-04-15T02:26:32;10.07;;;4.70;;
41631;SDS011;37452;51.938;4.624;2023-04-15T02:28:57;11.03;;;5.87;;
41631;SDS011;37452;51.938;4.624;2023-04-15T02:31:23;9.77;;;3.97;;
41631;SDS011;37452;51.938;4.624;2023-04-15T02:33:50;7.50;;;4.43;;
41631;SDS011;37452;51.938;4.624;2023-04-15T02:36:15;10.63;;;4.97;;
41631;SDS011;37452;51.938;4.624;2023-04-15T02:38:40;8.73;;;4.87;;
41631;SDS011;37452;51.938;4.624;2023-04-15T02:41:07;8.87;;;4.73;;
41631;SDS011;37452;51.938;4.624;2023-04-15T02:43:36;10.20;;;4.87;;
41631;SDS011;37452;51.938;4.624;2023-04-15T02:46:02;11.80;;;4.90;;
41631;SDS011;37452;51.938;4.624;2023-04-15T02:48:27;9.50;;;4.57;;
41631;SDS011;37452;51.938;4.624;2023-04-15T02:53:18;6.80;;;3.93;;
41631;SDS011;37452;51.938;4.624;2023-04-15T02:58:09;7.37;;;4.70;;
41631;SDS011;37452;51.938;4.624;2023-04-15T03:00:34;8.73;;;5.07;;
41631;SDS011;37452;51.938;4.624;2023-04-15T03:03:01;11.13;;;5.13;;
41631;SDS011;37452;51.938;4.624;2023-04-15T03:05:28;7.60;;;4.93;;
41631;SDS011;37452;51.938;4.624;2023-04-15T03:07:53;11.60;;;5.40;;
41631;SDS011;37452;51.938;4.624;2023-04-15T03:10:19;7.17;;;4.30;;
41631;SDS011;37452;51.938;4.624;2023-04-15T03:12:45;6.47;;;4.73;;
41631;SDS011;37452;51.938;4.624;2023-04-15T03:15:10;8.90;;;5.30;;
41631;SDS011;37452;51.938;4.624;2023-04-15T03:17:36;9.63;;;4.97;;
41631;SDS011;37452;51.938;4.624;2023-04-15T03:22:28;7.90;;;5.13;;
41631;SDS011;37452;51.938;4.624;2023-04-15T03:24:55;10.57;;;4.70;;
41631;SDS011;37452;51.938;4.624;2023-04-15T03:27:20;11.20;;;5.10;;
41631;SDS011;37452;51.938;4.624;2023-04-15T03:29:46;10.10;;;5.10;;
41631;SDS011;37452;51.938;4.624;2023-04-15T03:32:11;9.80;;;4.87;;
41631;SDS011;37452;51.938;4.624;2023-04-15T03:34:36;8.83;;;5.17;;
41631;SDS011;37452;51.938;4.624;2023-04-15T03:37:02;7.20;;;4.53;;
41631;SDS011;37452;51.938;4.624;2023-04-15T03:39:27;8.13;;;4.67;;
41631;SDS011;37452;51.938;4.624;2023-04-15T03:41:52;7.70;;;4.43;;
41631;SDS011;37452;51.938;4.624;2023-04-15T03:46:43;9.47;;;4.17;;
41631;SDS011;37452;51.938;4.624;2023-04-15T03:51:33;9.50;;;4.73;;
41631;SDS011;37452;51.938;4.624;2023-04-15T03:53:59;9.23;;;5.00;;
41631;SDS011;37452;51.938;4.624;2023-04-15T03:56:26;10.07;;;5.13;;
41631;SDS011;37452;51.938;4.624;2023-04-15T03:58:51;9.97;;;4.97;;
41631;SDS011;37452;51.938;4.624;2023-04-15T04:01:17;7.73;;;4.73;;
41631;SDS011;37452;51.938;4.624;2023-04-15T04:03:42;9.90;;;4.97;;
41631;SDS011;37452;51.938;4.624;2023-04-15T04:06:08;9.27;;;5.07;;
41631;SDS011;37452;51.938;4.624;2023-04-15T04:08:34;10.67;;;5.30;;
41631;SDS011;37452;51.938;4.624;2023-04-15T04:10:59;10.67;;;4.87;;
41631;SDS011;37452;51.938;4.624;2023-04-15T04:13:25;11.97;;;5.07;;
41631;SDS011;37452;51.938;4.624;2023-04-15T04:15:50;9.17;;;5.70;;
41631;SDS011;37452;51.938;4.624;2023-04-15T04:18:15;9.57;;;5.03;;
41631;SDS011;37452;51.938;4.624;2023-04-15T04:20:41;11.70;;;5.67;;
41631;SDS011;37452;51.938;4.624;2023-04-15T04:23:06;12.23;;;5.40;;
41631;SDS011;37452;51.938;4.624;2023-04-15T04:25:31;11.37;;;5.50;;
41631;SDS011;37452;51.938;4.624;2023-04-15T04:30:22;9.73;;;5.13;;
41631;SDS011;37452;51.938;4.624;2023-04-15T04:35:14;8.20;;;4.70;;
41631;SDS011;37452;51.938;4.624;2023-04-15T04:37:40;9.37;;;4.77;;
41631;SDS011;37452;51.938;4.624;2023-04-15T04:40:06;9.50;;;4.57;;
41631;SDS011;37452;51.938;4.624;2023-04-15T04:42:32;8.60;;;4.80;;
41631;SDS011;37452;51.938;4.624;2023-04-15T04:44:57;12.80;;;5.03;;
41631;SDS011;37452;51.938;4.624;2023-04-15T04:47:22;8.53;;;4.80;;
41631;SDS011;37452;51.938;4.624;2023-04-15T04:49:48;8.60;;;4.97;;
41631;SDS011;37452;51.938;4.624;2023-04-15T04:52:13;7.73;;;5.03;;
41631;SDS011;37452;51.938;4.624;2023-04-15T04:57:04;8.10;;;4.67;;
41631;SDS011;37452;51.938;4.624;2023-04-15T04:59:29;8.03;;;4.83;;
41631;SDS011;37452;51.938;4.624;2023-04-15T05:04:20;12.90;;;4.73;;
41631;SDS011;37452;51.938;4.624;2023-04-15T05:09:11;11.47;;;4.70;;
41631;SDS011;37452;51.938;4.624;2023-04-15T05:11:36;6.90;;;4.87;;
41631;SDS011;37452;51.938;4.624;2023-04-15T05:14:01;10.80;;;5.37;;
41631;SDS011;37452;51.938;4.624;2023-04-15T05:18:52;7.37;;;4.60;;
41631;SDS011;37452;51.938;4.624;2023-04-15T05:21:17;8.47;;;4.43;;
41631;SDS011;37452;51.938;4.624;2023-04-15T05:23:43;9.53;;;4.63;;
41631;SDS011;37452;51.938;4.624;2023-04-15T05:26:08;10.37;;;4.60;;
41631;SDS011;37452;51.938;4.624;2023-04-15T05:28:34;10.13;;;4.63;;
41631;SDS011;37452;51.938;4.624;2023-04-15T05:30:59;7.67;;;4.37;;
41631;SDS011;37452;51.938;4.624;2023-04-15T05:33:25;9.50;;;4.47;;
41631;SDS011;37452;51.938;4.624;2023-04-15T05:35:51;7.83;;;4.63;;
41631;SDS011;37452;51.938;4.624;2023-04-15T05:38:17;7.50;;;4.53;;
41631;SDS011;37452;51.938;4.624;2023-04-15T05:40:42;10.37;;;5.30;;
41631;SDS011;37452;51.938;4.624;2023-04-15T05:43:07;10.87;;;4.93;;
41631;SDS011;37452;51.938;4.624;2023-04-15T05:45:33;9.13;;;5.10;;
41631;SDS011;37452;51.938;4.624;2023-04-15T05:50:23;7.47;;;4.60;;
41631;SDS011;37452;51.938;4.624;2023-04-15T05:55:14;8.80;;;5.43;;
41631;SDS011;37452;51.938;4.624;2023-04-15T05:57:39;7.43;;;5.07;;
41631;SDS011;37452;51.938;4.624;2023-04-15T06:00:05;6.90;;;5.07;;
41631;SDS011;37452;51.938;4.624;2023-04-15T06:02:30;9.77;;;5.00;;
41631;SDS011;37452;51.938;4.624;2023-04-15T06:04:56;9.53;;;5.43;;
41631;SDS011;37452;51.938;4.624;2023-04-15T06:07:22;10.40;;;5.40;;
41631;SDS011;37452;51.938;4.624;2023-04-15T06:09:48;10.27;;;5.90;;
41631;SDS011;37452;51.938;4.624;2023-04-15T06:12:13;11.10;;;5.27;;
41631;SDS011;37452;51.938;4.624;2023-04-15T06:14:39;10.60;;;5.80;;
41631;SDS011;37452;51.938;4.624;2023-04-15T06:17:05;10.13;;;5.23;;
41631;SDS011;37452;51.938;4.624;2023-04-15T06:19:31;8.63;;;5.53;;
41631;SDS011;37452;51.938;4.624;2023-04-15T06:21:56;8.67;;;5.43;;
41631;SDS011;37452;51.938;4.624;2023-04-15T06:24:22;9.00;;;5.47;;
41631;SDS011;37452;51.938;4.624;2023-04-15T06:26:48;11.20;;;5.77;;
41631;SDS011;37452;51.938;4.624;2023-04-15T06:29:13;9.10;;;5.43;;
41631;SDS011;37452;51.938;4.624;2023-04-15T06:31:39;9.10;;;5.73;;
41631;SDS011;37452;51.938;4.624;2023-04-15T06:34:04;11.60;;;5.43;;
41631;SDS011;37452;51.938;4.624;2023-04-15T06:36:30;8.93;;;4.93;;
41631;SDS011;37452;51.938;4.624;2023-04-15T06:38:56;10.03;;;5.43;;
41631;SDS011;37452;51.938;4.624;2023-04-15T06:41:21;11.80;;;5.77;;
41631;SDS011;37452;51.938;4.624;2023-04-15T06:43:47;8.83;;;4.93;;
41631;SDS011;37452;51.938;4.624;2023-04-15T06:46:12;10.63;;;5.57;;
41631;SDS011;37452;51.938;4.624;2023-04-15T06:48:37;10.60;;;5.63;;
41631;SDS011;37452;51.938;4.624;2023-04-15T06:51:03;12.77;;;5.60;;
41631;SDS011;37452;51.938;4.624;2023-04-15T06:53:29;10.20;;;5.82;;
41631;SDS011;37452;51.938;4.624;2023-04-15T06:55:54;10.90;;;5.60;;
41631;SDS011;37452;51.938;4.624;2023-04-15T06:58:20;10.93;;;5.68;;
41631;SDS011;37452;51.938;4.624;2023-04-15T07:00:45;8.32;;;5.32;;
41631;SDS011;37452;51.938;4.624;2023-04-15T07:03:11;7.75;;;5.05;;
41631;SDS011;37452;51.938;4.624;2023-04-15T07:05:37;8.70;;;5.65;;
41631;SDS011;37452;51.938;4.624;2023-04-15T07:08:03;12.25;;;6.22;;
41631;SDS011;37452;51.938;4.624;2023-04-15T07:10:30;9.85;;;5.78;;
41631;SDS011;37452;51.938;4.624;2023-04-15T07:12:56;10.23;;;5.72;;
41631;SDS011;37452;51.938;4.624;2023-04-15T07:15:21;9.68;;;5.57;;
41631;SDS011;37452;51.938;4.624;2023-04-15T07:17:47;12.07;;;5.93;;
41631;SDS011;37452;51.938;4.624;2023-04-15T07:20:13;10.73;;;6.05;;
41631;SDS011;37452;51.938;4.624;2023-04-15T07:22:38;10.00;;;5.60;;
41631;SDS011;37452;51.938;4.624;2023-04-15T07:25:04;8.45;;;5.75;;
41631;SDS011;37452;51.938;4.624;2023-04-15T07:27:30;12.20;;;5.60;;
41631;SDS011;37452;51.938;4.624;2023-04-15T07:29:56;9.85;;;5.35;;
41631;SDS011;37452;51.938;4.624;2023-04-15T07:32:21;7.32;;;4.82;;
41631;SDS011;37452;51.938;4.624;2023-04-15T07:34:47;10.32;;;5.22;;
41631;SDS011;37452;51.938;4.624;2023-04-15T07:37:12;9.77;;;5.82;;
41631;SDS011;37452;51.938;4.624;2023-04-15T07:39:37;11.13;;;5.20;;
41631;SDS011;37452;51.938;4.624;2023-04-15T07:42:03;8.00;;;4.95;;
41631;SDS011;37452;51.938;4.624;2023-04-15T07:44:28;10.10;;;5.47;;
41631;SDS011;37452;51.938;4.624;2023-04-15T07:46:54;9.73;;;5.35;;
41631;SDS011;37452;51.938;4.624;2023-04-15T07:49:23;8.63;;;4.85;;
41631;SDS011;37452;51.938;4.624;2023-04-15T07:51:48;11.00;;;4.78;;
41631;SDS011;37452;51.938;4.624;2023-04-15T07:54:14;8.15;;;5.38;;
41631;SDS011;37452;51.938;4.624;2023-04-15T07:56:39;8.77;;;5.43;;
41631;SDS011;37452;51.938;4.624;2023-04-15T07:59:05;11.07;;;5.40;;
41631;SDS011;37452;51.938;4.624;2023-04-15T08:01:31;7.45;;;5.22;;
41631;SDS011;37452;51.938;4.624;2023-04-15T08:03:57;8.07;;;5.00;;
41631;SDS011;37452;51.938;4.624;2023-04-15T08:06:25;10.35;;;6.15;;
41631;SDS011;37452;51.938;4.624;2023-04-15T08:08:51;11.82;;;6.00;;
41631;SDS011;37452;51.938;4.624;2023-04-15T08:11:18;8.48;;;4.95;;
41631;SDS011;37452;51.938;4.624;2023-04-15T08:13:43;8.27;;;4.68;;
41631;SDS011;37452;51.938;4.624;2023-04-15T08:16:13;9.48;;;5.07;;
41631;SDS011;37452;51.938;4.624;2023-04-15T08:18:56;7.30;;;4.72;;
41631;SDS011;37452;51.938;4.624;2023-04-15T08:21:22;9.48;;;4.82;;
41631;SDS011;37452;51.938;4.624;2023-04-15T08:23:50;7.38;;;4.90;;
41631;SDS011;37452;51.938;4.624;2023-04-15T08:26:16;6.55;;;4.30;;
41631;SDS011;37452;51.938;4.624;2023-04-15T08:28:43;7.30;;;4.47;;
41631;SDS011;37452;51.938;4.624;2023-04-15T08:31:09;10.60;;;4.47;;
41631;SDS011;37452;51.938;4.624;2023-04-15T08:33:35;7.88;;;4.78;;
41631;SDS011;37452;51.938;4.624;2023-04-15T08:36:00;7.05;;;4.53;;
41631;SDS011;37452;51.938;4.624;2023-04-15T08:38:26;9.52;;;5.03;;
41631;SDS011;37452;51.938;4.624;2023-04-15T08:40:51;9.38;;;5.45;;
41631;SDS011;37452;51.938;4.624;2023-04-15T08:43:20;8.43;;;5.43;;
41631;SDS011;37452;51.938;4.624;2023-04-15T08:45:50;8.43;;;4.75;;
41631;SDS011;37452;51.938;4.624;2023-04-15T08:48:17;9.65;;;5.25;;
41631;SDS011;37452;51.938;4.624;2023-04-15T08:50:43;10.18;;;5.50;;
41631;SDS011;37452;51.938;4.624;2023-04-15T08:53:09;8.73;;;5.22;;
41631;SDS011;37452;51.938;4.624;2023-04-15T08:55:35;8.30;;;4.88;;
41631;SDS011;37452;51.938;4.624;2023-04-15T08:58:09;8.45;;;5.22;;
41631;SDS011;37452;51.938;4.624;2023-04-15T09:00:35;9.13;;;4.32;;
41631;SDS011;37452;51.938;4.624;2023-04-15T09:03:00;8.48;;;4.25;;
41631;SDS011;37452;51.938;4.624;2023-04-15T09:05:26;8.88;;;3.72;;
41631;SDS011;37452;51.938;4.624;2023-04-15T09:07:51;7.57;;;4.53;;
41631;SDS011;37452;51.938;4.624;2023-04-15T09:10:17;9.55;;;3.90;;
41631;SDS011;37452;51.938;4.624;2023-04-15T09:12:42;7.22;;;4.13;;
41631;SDS011;37452;51.938;4.624;2023-04-15T09:15:10;9.48;;;3.88;;
41631;SDS011;37452;51.938;4.624;2023-04-15T09:17:40;8.15;;;3.78;;
41631;SDS011;37452;51.938;4.624;2023-04-15T09:20:11;8.43;;;4.00;;
41631;SDS011;37452;51.938;4.624;2023-04-15T09:22:39;7.63;;;3.78;;
41631;SDS011;37452;51.938;4.624;2023-04-15T09:25:26;9.15;;;4.32;;
41631;SDS011;37452;51.938;4.624;2023-04-15T09:30:18;6.55;;;3.50;;
41631;SDS011;37452;51.938;4.624;2023-04-15T09:32:48;5.18;;;3.03;;
41631;SDS011;37452;51.938;4.624;2023-04-15T09:35:13;10.43;;;3.75;;
41631;SDS011;37452;51.938;4.624;2023-04-15T09:37:39;4.80;;;2.38;;
41631;SDS011;37452;51.938;4.624;2023-04-15T09:40:04;3.83;;;2.05;;
41631;SDS011;37452;51.938;4.624;2023-04-15T09:42:30;5.88;;;2.53;;
41631;SDS011;37452;51.938;4.624;2023-04-15T09:45:06;5.05;;;2.95;;
41631;SDS011;37452;51.938;4.624;2023-04-15T09:47:33;4.78;;;2.58;;
41631;SDS011;37452;51.938;4.624;2023-04-15T09:49:58;7.10;;;2.47;;
41631;SDS011;37452;51.938;4.624;2023-04-15T09:52:25;5.97;;;2.38;;
41631;SDS011;37452;51.938;4.624;2023-04-15T09:54:52;5.05;;;2.47;;
41631;SDS011;37452;51.938;4.624;2023-04-15T09:57:20;4.75;;;2.35;;
41631;SDS011;37452;51.938;4.624;2023-04-15T09:59:46;5.13;;;2.90;;
41631;SDS011;37452;51.938;4.624;2023-04-15T10:02:11;7.05;;;2.60;;
41631;SDS011;37452;51.938;4.624;2023-04-15T10:04:39;6.00;;;2.42;;
41631;SDS011;37452;51.938;4.624;2023-04-15T10:07:06;6.32;;;3.03;;
41631;SDS011;37452;51.938;4.624;2023-04-15T10:09:32;5.82;;;2.85;;
41631;SDS011;37452;51.938;4.624;2023-04-15T10:12:00;3.90;;;2.50;;
41631;SDS011;37452;51.938;4.624;2023-04-15T10:14:28;7.13;;;3.03;;
41631;SDS011;37452;51.938;4.624;2023-04-15T10:16:57;4.80;;;1.90;;
41631;SDS011;37452;51.938;4.624;2023-04-15T10:19:25;5.38;;;1.90;;
41631;SDS011;37452;51.938;4.624;2023-04-15T10:21:51;3.03;;;1.40;;
41631;SDS011;37452;51.938;4.624;2023-04-15T10:24:18;5.65;;;1.90;;
41631;SDS011;37452;51.938;4.624;2023-04-15T10:26:45;4.75;;;1.65;;
41631;SDS011;37452;51.938;4.624;2023-04-15T10:29:10;4.45;;;1.55;;
41631;SDS011;37452;51.938;4.624;2023-04-15T10:31:36;5.80;;;1.55;;
41631;SDS011;37452;51.938;4.624;2023-04-15T10:34:03;4.78;;;1.20;;
41631;SDS011;37452;51.938;4.624;2023-04-15T10:36:30;3.50;;;1.40;;
41631;SDS011;37452;51.938;4.624;2023-04-15T10:38:57;4.47;;;1.73;;
41631;SDS011;37452;51.938;4.624;2023-04-15T10:41:26;3.30;;;1.48;;
41631;SDS011;37452;51.938;4.624;2023-04-15T10:44:01;3.78;;;1.50;;
41631;SDS011;37452;51.938;4.624;2023-04-15T10:49:05;4.63;;;1.55;;
41631;SDS011;37452;51.938;4.624;2023-04-15T10:51:31;4.75;;;2.13;;
41631;SDS011;37452;51.938;4.624;2023-04-15T10:53:59;3.08;;;1.92;;
41631;SDS011;37452;51.938;4.624;2023-04-15T10:56:24;5.32;;;2.28;;
41631;SDS011;37452;51.938;4.624;2023-04-15T10:58:51;4.28;;;1.85;;
41631;SDS011;37452;51.938;4.624;2023-04-15T11:01:18;4.95;;;1.55;;
41631;SDS011;37452;51.938;4.624;2023-04-15T11:03:46;2.38;;;1.30;;
41631;SDS011;37452;51.938;4.624;2023-04-15T11:06:12;4.85;;;1.52;;
41631;SDS011;37452;51.938;4.624;2023-04-15T11:08:57;2.75;;;1.60;;
41631;SDS011;37452;51.938;4.624;2023-04-15T11:14:38;4.25;;;2.00;;
41631;SDS011;37452;51.938;4.624;2023-04-15T11:17:05;3.35;;;1.83;;
41631;SDS011;37452;51.938;4.624;2023-04-15T11:19:37;5.60;;;1.98;;
41631;SDS011;37452;51.938;4.624;2023-04-15T11:22:09;3.75;;;1.90;;
41631;SDS011;37452;51.938;4.624;2023-04-15T11:24:36;3.50;;;2.15;;
41631;SDS011;37452;51.938;4.624;2023-04-15T11:27:19;2.97;;;1.95;;
41631;SDS011;37452;51.938;4.624;2023-04-15T11:29:47;3.72;;;1.50;;
41631;SDS011;37452;51.938;4.624;2023-04-15T11:32:13;3.95;;;1.77;;
41631;SDS011;37452;51.938;4.624;2023-04-15T11:34:38;4.80;;;1.70;;
41631;SDS011;37452;51.938;4.624;2023-04-15T11:37:06;5.40;;;2.38;;
41631;SDS011;37452;51.938;4.624;2023-04-15T11:39:32;3.78;;;1.83;;
41631;SDS011;37452;51.938;4.624;2023-04-15T11:41:57;3.80;;;1.80;;
41631;SDS011;37452;51.938;4.624;2023-04-15T11:44:23;4.55;;;1.70;;
41631;SDS011;37452;51.938;4.624;2023-04-15T11:46:48;8.07;;;2.70;;
41631;SDS011;37452;51.938;4.624;2023-04-15T11:49:29;2.85;;;1.85;;
41631;SDS011;37452;51.938;4.624;2023-04-15T11:51:56;3.80;;;2.38;;
41631;SDS011;37452;51.938;4.624;2023-04-15T11:54:21;4.57;;;2.42;;
41631;SDS011;37452;51.938;4.624;2023-04-15T11:56:50;5.65;;;2.17;;
41631;SDS011;37452;51.938;4.624;2023-04-15T11:59:16;6.97;;;2.30;;
41631;SDS011;37452;51.938;4.624;2023-04-15T12:01:41;4.30;;;2.08;;
41631;SDS011;37452;51.938;4.624;2023-04-15T12:04:14;5.53;;;2.60;;
41631;SDS011;37452;51.938;4.624;2023-04-15T12:06:43;3.63;;;2.33;;
41631;SDS011;37452;51.938;4.624;2023-04-15T12:09:10;5.60;;;2.08;;
41631;SDS011;37452;51.938;4.624;2023-04-15T12:16:43;3.28;;;1.55;;
41631;SDS011;37452;51.938;4.624;2023-04-15T12:19:11;5.05;;;2.22;;
41631;SDS011;37452;51.938;4.624;2023-04-15T12:21:41;4.63;;;2.20;;
41631;SDS011;37452;51.938;4.624;2023-04-15T12:24:09;6.03;;;2.03;;
41631;SDS011;37452;51.938;4.624;2023-04-15T12:29:04;4.00;;;2.03;;
41631;SDS011;37452;51.938;4.624;2023-04-15T12:31:31;3.42;;;1.90;;
41631;SDS011;37452;51.938;4.624;2023-04-15T12:33:57;5.38;;;1.80;;
41631;SDS011;37452;51.938;4.624;2023-04-15T12:36:23;2.88;;;1.60;;
41631;SDS011;37452;51.938;4.624;2023-04-15T12:38:49;3.65;;;1.50;;
41631;SDS011;37452;51.938;4.624;2023-04-15T12:41:15;3.22;;;1.52;;
41631;SDS011;37452;51.938;4.624;2023-04-15T12:43:40;3.35;;;1.42;;
41631;SDS011;37452;51.938;4.624;2023-04-15T12:46:08;4.95;;;1.50;;
41631;SDS011;37452;51.938;4.624;2023-04-15T12:48:35;2.38;;;0.80;;
41631;SDS011;37452;51.938;4.624;2023-04-15T12:51:00;3.13;;;1.10;;
41631;SDS011;37452;51.938;4.624;2023-04-15T12:53:26;3.28;;;0.90;;
41631;SDS011;37452;51.938;4.624;2023-04-15T12:55:52;2.22;;;1.10;;
41631;SDS011;37452;51.938;4.624;2023-04-15T12:58:18;2.65;;;0.90;;
41631;SDS011;37452;51.938;4.624;2023-04-15T13:00:43;3.63;;;1.17;;
41631;SDS011;37452;51.938;4.624;2023-04-15T13:03:08;3.33;;;1.30;;
41631;SDS011;37452;51.938;4.624;2023-04-15T13:05:34;3.38;;;1.23;;
41631;SDS011;37452;51.938;4.624;2023-04-15T13:08:01;2.90;;;1.50;;
41631;SDS011;37452;51.938;4.624;2023-04-15T13:10:26;2.70;;;1.27;;
41631;SDS011;37452;51.938;4.624;2023-04-15T13:12:52;3.75;;;1.40;;
41631;SDS011;37452;51.938;4.624;2023-04-15T13:15:18;3.05;;;1.20;;
41631;SDS011;37452;51.938;4.624;2023-04-15T13:17:46;2.75;;;1.10;;
41631;SDS011;37452;51.938;4.624;2023-04-15T13:20:11;2.17;;;1.05;;
41631;SDS011;37452;51.938;4.624;2023-04-15T13:22:37;2.60;;;1.10;;
41631;SDS011;37452;51.938;4.624;2023-04-15T13:25:02;1.67;;;0.77;;
41631;SDS011;37452;51.938;4.624;2023-04-15T13:27:28;1.80;;;0.90;;
41631;SDS011;37452;51.938;4.624;2023-04-15T13:29:53;4.80;;;1.05;;
41631;SDS011;37452;51.938;4.624;2023-04-15T13:32:19;2.08;;;0.98;;
41631;SDS011;37452;51.938;4.624;2023-04-15T13:34:45;2.67;;;1.23;;
41631;SDS011;37452;51.938;4.624;2023-04-15T13:37:10;3.97;;;1.23;;
41631;SDS011;37452;51.938;4.624;2023-04-15T13:39:36;2.20;;;1.30;;
41631;SDS011;37452;51.938;4.624;2023-04-15T13:42:01;2.88;;;1.02;;
41631;SDS011;37452;51.938;4.624;2023-04-15T13:44:27;4.82;;;1.35;;
41631;SDS011;37452;51.938;4.624;2023-04-15T13:46:52;3.70;;;1.40;;
41631;SDS011;37452;51.938;4.624;2023-04-15T13:49:18;4.82;;;1.25;;
41631;SDS011;37452;51.938;4.624;2023-04-15T13:51:43;3.95;;;1.13;;
41631;SDS011;37452;51.938;4.624;2023-04-15T13:54:08;3.28;;;0.95;;
41631;SDS011;37452;51.938;4.624;2023-04-15T13:56:34;2.83;;;1.00;;
41631;SDS011;37452;51.938;4.624;2023-04-15T13:58:59;2.80;;;1.13;;
41631;SDS011;37452;51.938;4.624;2023-04-15T14:01:26;6.78;;;1.30;;
41631;SDS011;37452;51.938;4.624;2023-04-15T14:03:52;7.47;;;1.40;;
41631;SDS011;37452;51.938;4.624;2023-04-15T14:06:17;3.28;;;1.25;;
41631;SDS011;37452;51.938;4.624;2023-04-15T14:08:42;3.60;;;1.20;;
41631;SDS011;37452;51.938;4.624;2023-04-15T14:11:08;3.80;;;1.30;;
41631;SDS011;37452;51.938;4.624;2023-04-15T14:13:33;3.17;;;0.88;;
41631;SDS011;37452;51.938;4.624;2023-04-15T14:15:59;3.38;;;1.00;;
41631;SDS011;37452;51.938;4.624;2023-04-15T14:18:24;3.97;;;0.80;;
41631;SDS011;37452;51.938;4.624;2023-04-15T14:20:50;2.80;;;1.25;;
41631;SDS011;37452;51.938;4.624;2023-04-15T14:23:15;2.33;;;0.80;;
41631;SDS011;37452;51.938;4.624;2023-04-15T14:25:41;3.75;;;0.93;;
41631;SDS011;37452;51.938;4.624;2023-04-15T14:28:06;1.20;;;0.50;;
41631;SDS011;37452;51.938;4.624;2023-04-15T14:30:31;2.78;;;0.80;;
41631;SDS011;37452;51.938;4.624;2023-04-15T14:32:57;3.03;;;0.70;;
41631;SDS011;37452;51.938;4.624;2023-04-15T14:35:22;3.55;;;0.90;;
41631;SDS011;37452;51.938;4.624;2023-04-15T14:37:50;2.40;;;0.50;;
41631;SDS011;37452;51.938;4.624;2023-04-15T14:40:15;4.72;;;0.88;;
41631;SDS011;37452;51.938;4.624;2023-04-15T14:42:41;2.88;;;0.70;;
41631;SDS011;37452;51.938;4.624;2023-04-15T14:45:06;5.55;;;0.88;;
41631;SDS011;37452;51.938;4.624;2023-04-15T14:47:32;1.95;;;0.60;;
41631;SDS011;37452;51.938;4.624;2023-04-15T14:49:57;4.57;;;0.90;;
41631;SDS011;37452;51.938;4.624;2023-04-15T14:52:22;5.68;;;1.27;;
41631;SDS011;37452;51.938;4.624;2023-04-15T14:54:48;2.75;;;0.80;;
41631;SDS011;37452;51.938;4.624;2023-04-15T14:57:13;4.68;;;1.60;;
41631;SDS011;37452;51.938;4.624;2023-04-15T14:59:38;4.93;;;1.10;;
41631;SDS011;37452;51.938;4.624;2023-04-15T15:02:04;3.05;;;1.15;;
41631;SDS011;37452;51.938;4.624;2023-04-15T15:04:29;5.07;;;1.00;;
41631;SDS011;37452;51.938;4.624;2023-04-15T15:06:57;2.20;;;0.93;;
41631;SDS011;37452;51.938;4.624;2023-04-15T15:09:22;6.57;;;1.48;;
41631;SDS011;37452;51.938;4.624;2023-04-15T15:11:48;2.03;;;1.00;;
41631;SDS011;37452;51.938;4.624;2023-04-15T15:14:13;3.20;;;1.10;;
41631;SDS011;37452;51.938;4.624;2023-04-15T15:16:39;2.10;;;0.95;;
41631;SDS011;37452;51.938;4.624;2023-04-15T15:19:04;2.60;;;0.90;;
41631;SDS011;37452;51.938;4.624;2023-04-15T15:21:29;3.65;;;0.80;;
41631;SDS011;37452;51.938;4.624;2023-04-15T15:23:55;3.00;;;0.85;;
41631;SDS011;37452;51.938;4.624;2023-04-15T15:26:20;5.10;;;1.10;;
41631;SDS011;37452;51.938;4.624;2023-04-15T15:28:46;2.10;;;1.15;;
41631;SDS011;37452;51.938;4.624;2023-04-15T15:31:11;6.13;;;1.30;;